sensor_id;sensor_type;location;lat;lon;timestamp;P1;durP1;ratioP1;P2;durP2;ratioP2
75550;SDS011;65071;53.082;18.218;2023-05-07T00:00:05;31.40;;;15.70;;
75550;SDS011;65071;53.082;18.218;2023-05-07T00:02:54;34.80;;;16.90;;
75550;SDS011;65071;53.082;18.218;2023-05-07T00:05:21;31.10;;;16.30;;
75550;SDS011;65071;53.082;18.218;2023-05-07T00:07:47;30.70;;;16.00;;
75550;SDS011;65071;53.082;18.218;2023-05-07T00:10:14;32.50;;;17.20;;
75550;SDS011;65071;53.082;18.218;2023-05-07T00:12:40;33.80;;;17.30;;
75550;SDS011;65071;53.082;18.218;2023-05-07T00:15:07;31.60;;;16.70;;
75550;SDS011;65071;53.082;18.218;2023-05-07T00:17:34;32.20;;;16.30;;
75550;SDS011;65071;53.082;18.218;2023-05-07T00:20:01;30.70;;;16.00;;
75550;SDS011;65071;53.082;18.218;2023-05-07T00:22:29;29.70;;;16.00;;
75550;SDS011;65071;53.082;18.218;2023-05-07T00:24:57;33.10;;;15.70;;
75550;SDS011;65071;53.082;18.218;2023-05-07T00:27:24;33.30;;;17.00;;
75550;SDS011;65071;53.082;18.218;2023-05-07T00:29:51;33.50;;;16.40;;
75550;SDS011;65071;53.082;18.218;2023-05-07T00:32:18;31.80;;;15.50;;
75550;SDS011;65071;53.082;18.218;2023-05-07T00:34:44;31.20;;;15.40;;
75550;SDS011;65071;53.082;18.218;2023-05-07T00:37:11;34.20;;;16.00;;
75550;SDS011;65071;53.082;18.218;2023-05-07T00:39:38;28.90;;;14.80;;
75550;SDS011;65071;53.082;18.218;2023-05-07T00:42:04;30.30;;;14.30;;
75550;SDS011;65071;53.082;18.218;2023-05-07T00:44:31;28.20;;;14.40;;
75550;SDS011;65071;53.082;18.218;2023-05-07T00:46:57;28.60;;;13.40;;
75550;SDS011;65071;53.082;18.218;2023-05-07T00:49:26;28.60;;;13.20;;
75550;SDS011;65071;53.082;18.218;2023-05-07T00:52:09;29.80;;;13.70;;
75550;SDS011;65071;53.082;18.218;2023-05-07T00:54:39;30.60;;;14.00;;
75550;SDS011;65071;53.082;18.218;2023-05-07T00:57:06;31.20;;;13.90;;
75550;SDS011;65071;53.082;18.218;2023-05-07T00:59:35;25.40;;;12.50;;
75550;SDS011;65071;53.082;18.218;2023-05-07T01:02:01;24.30;;;12.40;;
75550;SDS011;65071;53.082;18.218;2023-05-07T01:04:28;25.40;;;12.50;;
75550;SDS011;65071;53.082;18.218;2023-05-07T01:06:55;22.10;;;12.00;;
75550;SDS011;65071;53.082;18.218;2023-05-07T01:09:26;24.00;;;12.40;;
75550;SDS011;65071;53.082;18.218;2023-05-07T01:11:53;24.10;;;12.20;;
75550;SDS011;65071;53.082;18.218;2023-05-07T01:14:21;23.10;;;11.60;;
75550;SDS011;65071;53.082;18.218;2023-05-07T01:16:48;24.40;;;11.40;;
75550;SDS011;65071;53.082;18.218;2023-05-07T01:19:18;22.30;;;11.50;;
75550;SDS011;65071;53.082;18.218;2023-05-07T01:21:46;19.10;;;10.60;;
75550;SDS011;65071;53.082;18.218;2023-05-07T01:24:14;18.50;;;10.40;;
75550;SDS011;65071;53.082;18.218;2023-05-07T01:26:42;20.60;;;11.40;;
75550;SDS011;65071;53.082;18.218;2023-05-07T01:29:12;24.00;;;11.40;;
75550;SDS011;65071;53.082;18.218;2023-05-07T01:31:39;23.40;;;10.80;;
75550;SDS011;65071;53.082;18.218;2023-05-07T01:34:08;17.90;;;10.90;;
75550;SDS011;65071;53.082;18.218;2023-05-07T01:36:39;20.80;;;10.00;;
75550;SDS011;65071;53.082;18.218;2023-05-07T01:39:07;22.00;;;10.90;;
75550;SDS011;65071;53.082;18.218;2023-05-07T01:41:35;21.60;;;11.10;;
75550;SDS011;65071;53.082;18.218;2023-05-07T01:44:03;19.20;;;10.80;;
75550;SDS011;65071;53.082;18.218;2023-05-07T01:46:30;21.60;;;11.70;;
75550;SDS011;65071;53.082;18.218;2023-05-07T01:48:57;21.10;;;11.40;;
75550;SDS011;65071;53.082;18.218;2023-05-07T01:51:24;23.30;;;10.20;;
75550;SDS011;65071;53.082;18.218;2023-05-07T01:53:52;23.40;;;11.80;;
75550;SDS011;65071;53.082;18.218;2023-05-07T01:56:19;25.90;;;11.40;;
75550;SDS011;65071;53.082;18.218;2023-05-07T01:58:46;24.00;;;12.30;;
75550;SDS011;65071;53.082;18.218;2023-05-07T02:01:13;26.90;;;13.00;;
75550;SDS011;65071;53.082;18.218;2023-05-07T02:03:40;26.40;;;12.50;;
75550;SDS011;65071;53.082;18.218;2023-05-07T02:06:09;28.40;;;13.90;;
75550;SDS011;65071;53.082;18.218;2023-05-07T02:08:38;29.80;;;13.50;;
75550;SDS011;65071;53.082;18.218;2023-05-07T02:11:05;24.30;;;11.60;;
75550;SDS011;65071;53.082;18.218;2023-05-07T02:13:32;23.40;;;11.50;;
75550;SDS011;65071;53.082;18.218;2023-05-07T02:16:01;23.00;;;11.20;;
75550;SDS011;65071;53.082;18.218;2023-05-07T02:18:28;33.20;;;13.00;;
75550;SDS011;65071;53.082;18.218;2023-05-07T02:20:55;33.90;;;13.80;;
75550;SDS011;65071;53.082;18.218;2023-05-07T02:23:22;31.80;;;13.10;;
75550;SDS011;65071;53.082;18.218;2023-05-07T02:25:48;33.30;;;14.20;;
75550;SDS011;65071;53.082;18.218;2023-05-07T02:28:15;36.40;;;13.00;;
75550;SDS011;65071;53.082;18.218;2023-05-07T02:30:59;46.70;;;12.90;;
75550;SDS011;65071;53.082;18.218;2023-05-07T02:33:27;38.00;;;12.90;;
75550;SDS011;65071;53.082;18.218;2023-05-07T02:35:53;32.50;;;12.00;;
75550;SDS011;65071;53.082;18.218;2023-05-07T02:38:20;26.10;;;12.50;;
75550;SDS011;65071;53.082;18.218;2023-05-07T02:40:46;29.80;;;12.40;;
75550;SDS011;65071;53.082;18.218;2023-05-07T02:43:13;28.00;;;13.30;;
75550;SDS011;65071;53.082;18.218;2023-05-07T02:45:42;27.90;;;12.20;;
75550;SDS011;65071;53.082;18.218;2023-05-07T02:48:09;22.30;;;10.80;;
75550;SDS011;65071;53.082;18.218;2023-05-07T02:50:36;26.50;;;12.90;;
75550;SDS011;65071;53.082;18.218;2023-05-07T02:53:02;32.10;;;12.80;;
75550;SDS011;65071;53.082;18.218;2023-05-07T02:55:30;23.40;;;11.00;;
75550;SDS011;65071;53.082;18.218;2023-05-07T02:57:56;21.20;;;11.50;;
75550;SDS011;65071;53.082;18.218;2023-05-07T03:00:23;15.50;;;8.60;;
75550;SDS011;65071;53.082;18.218;2023-05-07T03:02:57;17.40;;;8.70;;
75550;SDS011;65071;53.082;18.218;2023-05-07T03:05:24;18.60;;;8.50;;
75550;SDS011;65071;53.082;18.218;2023-05-07T03:07:50;14.00;;;8.60;;
75550;SDS011;65071;53.082;18.218;2023-05-07T03:10:17;18.40;;;9.90;;
75550;SDS011;65071;53.082;18.218;2023-05-07T03:12:44;24.80;;;16.00;;
75550;SDS011;65071;53.082;18.218;2023-05-07T03:15:12;20.20;;;12.50;;
75550;SDS011;65071;53.082;18.218;2023-05-07T03:17:38;18.40;;;10.10;;
75550;SDS011;65071;53.082;18.218;2023-05-07T03:20:05;15.80;;;8.70;;
75550;SDS011;65071;53.082;18.218;2023-05-07T03:22:33;16.00;;;8.70;;
75550;SDS011;65071;53.082;18.218;2023-05-07T03:25:00;15.60;;;8.90;;
75550;SDS011;65071;53.082;18.218;2023-05-07T03:27:26;14.80;;;7.60;;
75550;SDS011;65071;53.082;18.218;2023-05-07T03:29:53;18.20;;;9.20;;
75550;SDS011;65071;53.082;18.218;2023-05-07T03:32:20;16.70;;;9.30;;
75550;SDS011;65071;53.082;18.218;2023-05-07T03:34:46;18.60;;;9.60;;
75550;SDS011;65071;53.082;18.218;2023-05-07T03:37:13;19.60;;;10.20;;
75550;SDS011;65071;53.082;18.218;2023-05-07T03:39:41;16.40;;;9.60;;
75550;SDS011;65071;53.082;18.218;2023-05-07T03:42:07;17.50;;;9.60;;
75550;SDS011;65071;53.082;18.218;2023-05-07T03:44:34;15.30;;;9.30;;
75550;SDS011;65071;53.082;18.218;2023-05-07T03:47:03;16.80;;;9.70;;
75550;SDS011;65071;53.082;18.218;2023-05-07T03:49:30;18.50;;;9.30;;
75550;SDS011;65071;53.082;18.218;2023-05-07T03:51:57;18.90;;;9.40;;
75550;SDS011;65071;53.082;18.218;2023-05-07T03:54:23;17.50;;;8.70;;
75550;SDS011;65071;53.082;18.218;2023-05-07T03:56:50;20.50;;;10.10;;
75550;SDS011;65071;53.082;18.218;2023-05-07T03:59:16;19.80;;;9.70;;
75550;SDS011;65071;53.082;18.218;2023-05-07T04:01:43;19.50;;;9.90;;
75550;SDS011;65071;53.082;18.218;2023-05-07T04:04:15;18.00;;;9.60;;
75550;SDS011;65071;53.082;18.218;2023-05-07T04:06:42;18.20;;;9.50;;
75550;SDS011;65071;53.082;18.218;2023-05-07T04:09:08;22.30;;;9.10;;
75550;SDS011;65071;53.082;18.218;2023-05-07T04:11:35;22.40;;;9.70;;
75550;SDS011;65071;53.082;18.218;2023-05-07T04:14:02;22.90;;;9.90;;
75550;SDS011;65071;53.082;18.218;2023-05-07T04:16:29;16.50;;;9.60;;
75550;SDS011;65071;53.082;18.218;2023-05-07T04:18:55;11.20;;;6.50;;
75550;SDS011;65071;53.082;18.218;2023-05-07T04:21:22;23.40;;;9.30;;
75550;SDS011;65071;53.082;18.218;2023-05-07T04:23:49;31.10;;;9.40;;
75550;SDS011;65071;53.082;18.218;2023-05-07T04:26:16;29.00;;;9.50;;
75550;SDS011;65071;53.082;18.218;2023-05-07T04:28:44;17.30;;;7.90;;
75550;SDS011;65071;53.082;18.218;2023-05-07T04:31:11;19.60;;;9.60;;
75550;SDS011;65071;53.082;18.218;2023-05-07T04:33:38;22.50;;;9.40;;
75550;SDS011;65071;53.082;18.218;2023-05-07T04:36:05;45.30;;;11.50;;
75550;SDS011;65071;53.082;18.218;2023-05-07T04:38:36;33.20;;;9.50;;
75550;SDS011;65071;53.082;18.218;2023-05-07T04:41:04;35.10;;;10.50;;
75550;SDS011;65071;53.082;18.218;2023-05-07T04:43:32;42.90;;;11.50;;
75550;SDS011;65071;53.082;18.218;2023-05-07T04:45:59;51.90;;;13.10;;
75550;SDS011;65071;53.082;18.218;2023-05-07T04:48:26;34.60;;;11.80;;
75550;SDS011;65071;53.082;18.218;2023-05-07T04:50:53;30.60;;;11.80;;
75550;SDS011;65071;53.082;18.218;2023-05-07T04:53:20;34.00;;;10.10;;
75550;SDS011;65071;53.082;18.218;2023-05-07T04:55:47;21.00;;;8.40;;
75550;SDS011;65071;53.082;18.218;2023-05-07T04:58:14;20.80;;;9.20;;
75550;SDS011;65071;53.082;18.218;2023-05-07T05:00:41;14.20;;;7.40;;
75550;SDS011;65071;53.082;18.218;2023-05-07T05:03:08;40.60;;;11.20;;
75550;SDS011;65071;53.082;18.218;2023-05-07T05:05:36;22.70;;;10.40;;
75550;SDS011;65071;53.082;18.218;2023-05-07T05:08:03;21.60;;;9.60;;
75550;SDS011;65071;53.082;18.218;2023-05-07T05:10:29;23.00;;;10.00;;
75550;SDS011;65071;53.082;18.218;2023-05-07T05:12:56;13.90;;;8.50;;
75550;SDS011;65071;53.082;18.218;2023-05-07T05:15:23;14.50;;;8.30;;
75550;SDS011;65071;53.082;18.218;2023-05-07T05:17:49;15.90;;;9.40;;
75550;SDS011;65071;53.082;18.218;2023-05-07T05:20:16;16.60;;;9.00;;
75550;SDS011;65071;53.082;18.218;2023-05-07T05:22:43;21.50;;;10.60;;
75550;SDS011;65071;53.082;18.218;2023-05-07T05:25:10;14.80;;;8.80;;
75550;SDS011;65071;53.082;18.218;2023-05-07T05:27:37;19.60;;;9.80;;
75550;SDS011;65071;53.082;18.218;2023-05-07T05:30:04;17.60;;;10.30;;
75550;SDS011;65071;53.082;18.218;2023-05-07T05:32:32;17.90;;;11.20;;
75550;SDS011;65071;53.082;18.218;2023-05-07T05:34:59;13.70;;;8.90;;
75550;SDS011;65071;53.082;18.218;2023-05-07T05:37:26;17.20;;;9.90;;
75550;SDS011;65071;53.082;18.218;2023-05-07T05:39:53;20.90;;;12.70;;
75550;SDS011;65071;53.082;18.218;2023-05-07T05:42:21;21.30;;;12.30;;
75550;SDS011;65071;53.082;18.218;2023-05-07T05:44:47;18.60;;;11.00;;
75550;SDS011;65071;53.082;18.218;2023-05-07T05:47:14;17.70;;;10.60;;
75550;SDS011;65071;53.082;18.218;2023-05-07T05:49:41;18.90;;;11.60;;
75550;SDS011;65071;53.082;18.218;2023-05-07T05:52:11;13.50;;;8.10;;
75550;SDS011;65071;53.082;18.218;2023-05-07T05:54:38;10.90;;;6.90;;
75550;SDS011;65071;53.082;18.218;2023-05-07T05:57:05;9.10;;;6.50;;
75550;SDS011;65071;53.082;18.218;2023-05-07T05:59:32;10.50;;;6.90;;
75550;SDS011;65071;53.082;18.218;2023-05-07T06:01:59;11.10;;;7.00;;
75550;SDS011;65071;53.082;18.218;2023-05-07T06:04:26;11.80;;;7.70;;
75550;SDS011;65071;53.082;18.218;2023-05-07T06:06:52;10.00;;;6.30;;
75550;SDS011;65071;53.082;18.218;2023-05-07T06:09:20;9.40;;;6.40;;
75550;SDS011;65071;53.082;18.218;2023-05-07T06:11:46;8.00;;;5.00;;
75550;SDS011;65071;53.082;18.218;2023-05-07T06:14:13;9.30;;;6.30;;
75550;SDS011;65071;53.082;18.218;2023-05-07T06:16:40;9.40;;;6.50;;
75550;SDS011;65071;53.082;18.218;2023-05-07T06:19:07;15.00;;;6.20;;
75550;SDS011;65071;53.082;18.218;2023-05-07T06:21:34;9.50;;;6.50;;
75550;SDS011;65071;53.082;18.218;2023-05-07T06:24:01;7.30;;;5.40;;
75550;SDS011;65071;53.082;18.218;2023-05-07T06:26:28;8.90;;;5.90;;
75550;SDS011;65071;53.082;18.218;2023-05-07T06:28:55;8.00;;;4.60;;
75550;SDS011;65071;53.082;18.218;2023-05-07T06:31:21;11.10;;;5.00;;
75550;SDS011;65071;53.082;18.218;2023-05-07T06:34:01;7.70;;;4.00;;
75550;SDS011;65071;53.082;18.218;2023-05-07T06:36:32;7.90;;;4.90;;
75550;SDS011;65071;53.082;18.218;2023-05-07T06:38:59;7.80;;;4.80;;
75550;SDS011;65071;53.082;18.218;2023-05-07T06:41:25;7.20;;;3.90;;
75550;SDS011;65071;53.082;18.218;2023-05-07T06:43:52;7.50;;;4.20;;
75550;SDS011;65071;53.082;18.218;2023-05-07T06:46:36;8.20;;;4.60;;
75550;SDS011;65071;53.082;18.218;2023-05-07T06:49:04;6.80;;;4.20;;
75550;SDS011;65071;53.082;18.218;2023-05-07T06:51:31;5.50;;;4.10;;
75550;SDS011;65071;53.082;18.218;2023-05-07T06:54:01;6.70;;;3.90;;
75550;SDS011;65071;53.082;18.218;2023-05-07T06:56:27;5.50;;;3.90;;
75550;SDS011;65071;53.082;18.218;2023-05-07T06:58:55;6.10;;;4.00;;
75550;SDS011;65071;53.082;18.218;2023-05-07T07:01:21;6.20;;;4.00;;
75550;SDS011;65071;53.082;18.218;2023-05-07T07:03:48;6.60;;;3.40;;
75550;SDS011;65071;53.082;18.218;2023-05-07T07:06:14;6.10;;;3.70;;
75550;SDS011;65071;53.082;18.218;2023-05-07T07:08:41;6.60;;;4.00;;
75550;SDS011;65071;53.082;18.218;2023-05-07T07:11:10;5.30;;;3.10;;
75550;SDS011;65071;53.082;18.218;2023-05-07T07:13:37;4.40;;;2.90;;
75550;SDS011;65071;53.082;18.218;2023-05-07T07:16:04;5.10;;;3.10;;
75550;SDS011;65071;53.082;18.218;2023-05-07T07:18:31;4.70;;;3.50;;
75550;SDS011;65071;53.082;18.218;2023-05-07T07:20:58;7.20;;;3.50;;
75550;SDS011;65071;53.082;18.218;2023-05-07T07:23:25;6.90;;;3.70;;
75550;SDS011;65071;53.082;18.218;2023-05-07T07:25:52;3.00;;;1.90;;
75550;SDS011;65071;53.082;18.218;2023-05-07T07:28:20;6.80;;;3.40;;
75550;SDS011;65071;53.082;18.218;2023-05-07T07:30:48;5.10;;;2.50;;
75550;SDS011;65071;53.082;18.218;2023-05-07T07:33:15;4.40;;;3.10;;
75550;SDS011;65071;53.082;18.218;2023-05-07T07:35:42;3.90;;;2.60;;
75550;SDS011;65071;53.082;18.218;2023-05-07T07:38:10;6.40;;;2.90;;
75550;SDS011;65071;53.082;18.218;2023-05-07T07:40:37;4.80;;;2.80;;
75550;SDS011;65071;53.082;18.218;2023-05-07T07:43:04;7.40;;;3.10;;
75550;SDS011;65071;53.082;18.218;2023-05-07T07:45:31;5.00;;;3.00;;
75550;SDS011;65071;53.082;18.218;2023-05-07T07:47:58;3.70;;;2.70;;
75550;SDS011;65071;53.082;18.218;2023-05-07T07:50:24;5.80;;;3.20;;
75550;SDS011;65071;53.082;18.218;2023-05-07T07:52:51;3.80;;;2.40;;
75550;SDS011;65071;53.082;18.218;2023-05-07T07:55:19;4.50;;;3.50;;
75550;SDS011;65071;53.082;18.218;2023-05-07T07:57:49;3.90;;;3.10;;
75550;SDS011;65071;53.082;18.218;2023-05-07T08:00:16;3.90;;;2.40;;
75550;SDS011;65071;53.082;18.218;2023-05-07T08:02:43;5.10;;;3.00;;
75550;SDS011;65071;53.082;18.218;2023-05-07T08:05:11;4.00;;;2.80;;
75550;SDS011;65071;53.082;18.218;2023-05-07T08:07:37;6.20;;;2.90;;
75550;SDS011;65071;53.082;18.218;2023-05-07T08:10:04;5.10;;;2.50;;
75550;SDS011;65071;53.082;18.218;2023-05-07T08:12:32;5.30;;;2.50;;
75550;SDS011;65071;53.082;18.218;2023-05-07T08:14:58;5.50;;;2.80;;
75550;SDS011;65071;53.082;18.218;2023-05-07T08:17:26;3.50;;;2.00;;
75550;SDS011;65071;53.082;18.218;2023-05-07T08:19:52;5.90;;;2.50;;
75550;SDS011;65071;53.082;18.218;2023-05-07T08:22:19;3.50;;;2.90;;
75550;SDS011;65071;53.082;18.218;2023-05-07T08:24:46;4.80;;;3.00;;
75550;SDS011;65071;53.082;18.218;2023-05-07T08:27:13;4.60;;;2.70;;
75550;SDS011;65071;53.082;18.218;2023-05-07T08:29:40;5.10;;;3.60;;
75550;SDS011;65071;53.082;18.218;2023-05-07T08:32:07;3.70;;;2.20;;
75550;SDS011;65071;53.082;18.218;2023-05-07T08:34:34;4.00;;;2.60;;
75550;SDS011;65071;53.082;18.218;2023-05-07T08:37:02;5.40;;;3.20;;
75550;SDS011;65071;53.082;18.218;2023-05-07T08:39:29;4.20;;;3.00;;
75550;SDS011;65071;53.082;18.218;2023-05-07T08:41:56;3.80;;;2.90;;
75550;SDS011;65071;53.082;18.218;2023-05-07T08:44:26;4.40;;;2.70;;
75550;SDS011;65071;53.082;18.218;2023-05-07T08:46:56;4.50;;;2.60;;
75550;SDS011;65071;53.082;18.218;2023-05-07T08:51:52;4.00;;;2.90;;
75550;SDS011;65071;53.082;18.218;2023-05-07T08:54:19;4.70;;;2.90;;
75550;SDS011;65071;53.082;18.218;2023-05-07T08:56:46;4.30;;;2.60;;
75550;SDS011;65071;53.082;18.218;2023-05-07T08:59:14;5.00;;;2.60;;
75550;SDS011;65071;53.082;18.218;2023-05-07T09:01:41;3.60;;;2.60;;
75550;SDS011;65071;53.082;18.218;2023-05-07T09:04:08;5.00;;;3.30;;
75550;SDS011;65071;53.082;18.218;2023-05-07T09:06:35;6.30;;;2.50;;
75550;SDS011;65071;53.082;18.218;2023-05-07T09:09:04;5.90;;;2.60;;
75550;SDS011;65071;53.082;18.218;2023-05-07T09:11:32;7.50;;;3.10;;
75550;SDS011;65071;53.082;18.218;2023-05-07T09:14:00;4.80;;;3.10;;
75550;SDS011;65071;53.082;18.218;2023-05-07T09:16:34;5.60;;;3.00;;
75550;SDS011;65071;53.082;18.218;2023-05-07T09:19:00;4.20;;;2.80;;
75550;SDS011;65071;53.082;18.218;2023-05-07T09:21:27;4.30;;;2.50;;
75550;SDS011;65071;53.082;18.218;2023-05-07T09:23:55;3.50;;;2.70;;
75550;SDS011;65071;53.082;18.218;2023-05-07T09:26:26;4.60;;;2.30;;
75550;SDS011;65071;53.082;18.218;2023-05-07T09:28:54;4.30;;;2.60;;
75550;SDS011;65071;53.082;18.218;2023-05-07T09:31:21;4.20;;;2.30;;
75550;SDS011;65071;53.082;18.218;2023-05-07T09:33:49;6.10;;;2.80;;
75550;SDS011;65071;53.082;18.218;2023-05-07T09:36:17;3.80;;;2.80;;
75550;SDS011;65071;53.082;18.218;2023-05-07T09:38:44;3.40;;;2.10;;
75550;SDS011;65071;53.082;18.218;2023-05-07T09:41:12;2.50;;;2.00;;
75550;SDS011;65071;53.082;18.218;2023-05-07T09:43:47;3.60;;;2.30;;
75550;SDS011;65071;53.082;18.218;2023-05-07T09:46:20;4.80;;;2.70;;
75550;SDS011;65071;53.082;18.218;2023-05-07T09:48:54;3.60;;;2.60;;
75550;SDS011;65071;53.082;18.218;2023-05-07T09:51:25;2.50;;;1.70;;
75550;SDS011;65071;53.082;18.218;2023-05-07T09:53:59;2.90;;;2.10;;
75550;SDS011;65071;53.082;18.218;2023-05-07T09:56:29;2.50;;;1.60;;
75550;SDS011;65071;53.082;18.218;2023-05-07T09:58:57;3.00;;;1.90;;
75550;SDS011;65071;53.082;18.218;2023-05-07T10:01:27;3.40;;;2.30;;
75550;SDS011;65071;53.082;18.218;2023-05-07T10:03:55;3.50;;;1.90;;
75550;SDS011;65071;53.082;18.218;2023-05-07T10:06:24;3.40;;;2.30;;
75550;SDS011;65071;53.082;18.218;2023-05-07T10:08:52;2.20;;;1.40;;
75550;SDS011;65071;53.082;18.218;2023-05-07T10:11:19;3.10;;;2.20;;
75550;SDS011;65071;53.082;18.218;2023-05-07T10:13:47;5.90;;;2.00;;
75550;SDS011;65071;53.082;18.218;2023-05-07T10:16:14;3.30;;;2.10;;
75550;SDS011;65071;53.082;18.218;2023-05-07T10:18:45;3.60;;;2.00;;
75550;SDS011;65071;53.082;18.218;2023-05-07T10:21:17;3.10;;;1.80;;
75550;SDS011;65071;53.082;18.218;2023-05-07T10:23:45;4.90;;;2.00;;
75550;SDS011;65071;53.082;18.218;2023-05-07T10:26:17;6.60;;;2.80;;
75550;SDS011;65071;53.082;18.218;2023-05-07T10:28:47;3.70;;;2.00;;
75550;SDS011;65071;53.082;18.218;2023-05-07T10:31:23;4.50;;;2.20;;
75550;SDS011;65071;53.082;18.218;2023-05-07T10:34:20;5.40;;;2.20;;
75550;SDS011;65071;53.082;18.218;2023-05-07T10:36:49;2.90;;;1.80;;
75550;SDS011;65071;53.082;18.218;2023-05-07T10:39:16;2.60;;;1.80;;
75550;SDS011;65071;53.082;18.218;2023-05-07T10:41:43;2.40;;;1.90;;
75550;SDS011;65071;53.082;18.218;2023-05-07T10:44:10;2.60;;;1.90;;
75550;SDS011;65071;53.082;18.218;2023-05-07T10:46:37;2.30;;;1.70;;
75550;SDS011;65071;53.082;18.218;2023-05-07T10:49:12;4.20;;;2.00;;
75550;SDS011;65071;53.082;18.218;2023-05-07T10:51:43;3.70;;;1.90;;
75550;SDS011;65071;53.082;18.218;2023-05-07T10:54:20;3.20;;;1.80;;
75550;SDS011;65071;53.082;18.218;2023-05-07T10:59:31;3.50;;;1.50;;
75550;SDS011;65071;53.082;18.218;2023-05-07T11:02:13;2.30;;;1.40;;
75550;SDS011;65071;53.082;18.218;2023-05-07T11:05:18;3.40;;;1.50;;
75550;SDS011;65071;53.082;18.218;2023-05-07T11:08:19;4.70;;;2.00;;
75550;SDS011;65071;53.082;18.218;2023-05-07T11:11:04;2.90;;;1.70;;
75550;SDS011;65071;53.082;18.218;2023-05-07T11:13:42;3.10;;;1.70;;
75550;SDS011;65071;53.082;18.218;2023-05-07T11:16:23;3.00;;;1.80;;
75550;SDS011;65071;53.082;18.218;2023-05-07T11:18:57;3.10;;;1.70;;
75550;SDS011;65071;53.082;18.218;2023-05-07T11:21:33;2.70;;;1.70;;
75550;SDS011;65071;53.082;18.218;2023-05-07T11:24:09;3.20;;;2.10;;
75550;SDS011;65071;53.082;18.218;2023-05-07T11:27:00;4.70;;;2.20;;
75550;SDS011;65071;53.082;18.218;2023-05-07T11:29:27;4.00;;;2.00;;
75550;SDS011;65071;53.082;18.218;2023-05-07T11:31:58;2.00;;;1.70;;
75550;SDS011;65071;53.082;18.218;2023-05-07T11:34:29;2.60;;;1.80;;
75550;SDS011;65071;53.082;18.218;2023-05-07T11:36:57;3.20;;;2.00;;
75550;SDS011;65071;53.082;18.218;2023-05-07T11:39:35;2.10;;;1.40;;
75550;SDS011;65071;53.082;18.218;2023-05-07T11:42:02;4.00;;;2.00;;
75550;SDS011;65071;53.082;18.218;2023-05-07T11:44:44;2.40;;;1.90;;
75550;SDS011;65071;53.082;18.218;2023-05-07T11:47:17;3.10;;;1.90;;
75550;SDS011;65071;53.082;18.218;2023-05-07T11:49:48;4.20;;;1.80;;
75550;SDS011;65071;53.082;18.218;2023-05-07T11:52:16;2.60;;;1.60;;
75550;SDS011;65071;53.082;18.218;2023-05-07T11:54:50;2.50;;;1.60;;
75550;SDS011;65071;53.082;18.218;2023-05-07T11:57:17;2.90;;;2.00;;
75550;SDS011;65071;53.082;18.218;2023-05-07T11:59:44;3.60;;;1.80;;
75550;SDS011;65071;53.082;18.218;2023-05-07T12:02:16;2.30;;;1.60;;
75550;SDS011;65071;53.082;18.218;2023-05-07T12:04:44;2.10;;;1.70;;
75550;SDS011;65071;53.082;18.218;2023-05-07T12:07:11;4.20;;;1.60;;
75550;SDS011;65071;53.082;18.218;2023-05-07T12:09:42;3.10;;;1.50;;
75550;SDS011;65071;53.082;18.218;2023-05-07T12:12:09;2.90;;;1.60;;
75550;SDS011;65071;53.082;18.218;2023-05-07T12:14:39;3.00;;;2.20;;
75550;SDS011;65071;53.082;18.218;2023-05-07T12:17:09;2.30;;;1.20;;
75550;SDS011;65071;53.082;18.218;2023-05-07T12:19:38;3.10;;;2.00;;
75550;SDS011;65071;53.082;18.218;2023-05-07T12:22:09;3.40;;;1.40;;
75550;SDS011;65071;53.082;18.218;2023-05-07T12:27:16;2.20;;;1.20;;
75550;SDS011;65071;53.082;18.218;2023-05-07T12:29:45;4.50;;;2.10;;
75550;SDS011;65071;53.082;18.218;2023-05-07T12:32:13;2.20;;;1.20;;
75550;SDS011;65071;53.082;18.218;2023-05-07T12:34:41;1.60;;;1.30;;
75550;SDS011;65071;53.082;18.218;2023-05-07T12:37:08;2.00;;;1.30;;
75550;SDS011;65071;53.082;18.218;2023-05-07T12:39:34;3.70;;;1.50;;
75550;SDS011;65071;53.082;18.218;2023-05-07T12:42:01;2.30;;;1.60;;
75550;SDS011;65071;53.082;18.218;2023-05-07T12:44:32;1.40;;;1.10;;
75550;SDS011;65071;53.082;18.218;2023-05-07T12:47:01;2.30;;;1.40;;
75550;SDS011;65071;53.082;18.218;2023-05-07T12:49:28;2.30;;;1.50;;
75550;SDS011;65071;53.082;18.218;2023-05-07T12:51:54;2.20;;;1.50;;
75550;SDS011;65071;53.082;18.218;2023-05-07T12:54:29;1.90;;;1.40;;
75550;SDS011;65071;53.082;18.218;2023-05-07T12:57:03;2.40;;;1.80;;
75550;SDS011;65071;53.082;18.218;2023-05-07T12:59:36;1.60;;;1.20;;
75550;SDS011;65071;53.082;18.218;2023-05-07T13:02:04;2.00;;;1.30;;
75550;SDS011;65071;53.082;18.218;2023-05-07T13:04:31;1.40;;;1.30;;
75550;SDS011;65071;53.082;18.218;2023-05-07T13:06:59;1.50;;;1.00;;
75550;SDS011;65071;53.082;18.218;2023-05-07T13:09:26;2.00;;;1.60;;
75550;SDS011;65071;53.082;18.218;2023-05-07T13:11:55;2.30;;;1.40;;
75550;SDS011;65071;53.082;18.218;2023-05-07T13:14:21;2.40;;;1.50;;
75550;SDS011;65071;53.082;18.218;2023-05-07T13:16:48;1.70;;;1.00;;
75550;SDS011;65071;53.082;18.218;2023-05-07T13:19:15;3.60;;;1.60;;
75550;SDS011;65071;53.082;18.218;2023-05-07T13:21:42;3.70;;;1.30;;
75550;SDS011;65071;53.082;18.218;2023-05-07T13:24:08;3.60;;;1.30;;
75550;SDS011;65071;53.082;18.218;2023-05-07T13:26:35;1.90;;;1.50;;
75550;SDS011;65071;53.082;18.218;2023-05-07T13:29:01;1.90;;;1.50;;
75550;SDS011;65071;53.082;18.218;2023-05-07T13:31:28;1.80;;;1.30;;
75550;SDS011;65071;53.082;18.218;2023-05-07T13:33:54;1.40;;;1.30;;
75550;SDS011;65071;53.082;18.218;2023-05-07T13:36:22;1.80;;;1.20;;
75550;SDS011;65071;53.082;18.218;2023-05-07T13:38:49;1.90;;;1.10;;
75550;SDS011;65071;53.082;18.218;2023-05-07T13:41:17;1.90;;;1.20;;
75550;SDS011;65071;53.082;18.218;2023-05-07T13:43:44;3.50;;;2.00;;
75550;SDS011;65071;53.082;18.218;2023-05-07T13:46:10;1.60;;;1.50;;
75550;SDS011;65071;53.082;18.218;2023-05-07T13:48:37;2.60;;;1.50;;
75550;SDS011;65071;53.082;18.218;2023-05-07T13:51:03;2.00;;;1.30;;
75550;SDS011;65071;53.082;18.218;2023-05-07T13:53:30;2.40;;;1.60;;
75550;SDS011;65071;53.082;18.218;2023-05-07T13:55:57;2.50;;;1.80;;
75550;SDS011;65071;53.082;18.218;2023-05-07T13:58:23;3.70;;;1.70;;
75550;SDS011;65071;53.082;18.218;2023-05-07T14:00:50;3.00;;;2.10;;
75550;SDS011;65071;53.082;18.218;2023-05-07T14:03:16;2.00;;;1.60;;
75550;SDS011;65071;53.082;18.218;2023-05-07T14:05:45;3.20;;;1.80;;
75550;SDS011;65071;53.082;18.218;2023-05-07T14:08:12;2.80;;;1.80;;
75550;SDS011;65071;53.082;18.218;2023-05-07T14:10:40;3.10;;;1.30;;
75550;SDS011;65071;53.082;18.218;2023-05-07T14:13:06;2.20;;;1.70;;
75550;SDS011;65071;53.082;18.218;2023-05-07T14:15:33;2.20;;;1.60;;
75550;SDS011;65071;53.082;18.218;2023-05-07T14:17:59;2.50;;;1.50;;
75550;SDS011;65071;53.082;18.218;2023-05-07T14:20:26;1.70;;;1.10;;
75550;SDS011;65071;53.082;18.218;2023-05-07T14:22:53;1.80;;;1.30;;
75550;SDS011;65071;53.082;18.218;2023-05-07T14:25:19;1.90;;;1.60;;
75550;SDS011;65071;53.082;18.218;2023-05-07T14:27:48;2.50;;;1.40;;
75550;SDS011;65071;53.082;18.218;2023-05-07T14:30:16;3.00;;;1.40;;
75550;SDS011;65071;53.082;18.218;2023-05-07T14:32:43;2.20;;;1.70;;
75550;SDS011;65071;53.082;18.218;2023-05-07T14:35:10;1.50;;;0.90;;
75550;SDS011;65071;53.082;18.218;2023-05-07T14:37:36;2.30;;;1.10;;
75550;SDS011;65071;53.082;18.218;2023-05-07T14:40:03;1.90;;;1.40;;